createdAt,value
2019-01-04T00:01:32.640Z,1.10
2019-01-04T00:04:03.965Z,1.37
2019-01-04T00:06:33.580Z,1.17
2019-01-04T00:09:05.729Z,1.20
2019-01-04T00:11:36.425Z,1.10
2019-01-04T00:14:07.325Z,1.23
2019-01-04T00:16:37.905Z,1.20
2019-01-04T00:19:07.574Z,1.20
2019-01-04T00:21:37.945Z,1.00
2019-01-04T00:24:08.342Z,1.10
2019-01-04T00:26:38.557Z,1.10
2019-01-04T00:29:08.860Z,0.90
2019-01-04T00:31:38.564Z,1.03
2019-01-04T00:34:08.418Z,1.17
2019-01-04T00:36:38.313Z,1.00
2019-01-04T00:39:08.177Z,0.80
2019-01-04T00:41:37.966Z,0.90
2019-01-04T00:44:08.077Z,1.10
2019-01-04T00:46:37.710Z,1.03
2019-01-04T00:49:08.106Z,1.00
2019-01-04T00:51:38.122Z,1.00
2019-01-04T00:54:08.460Z,0.80
2019-01-04T00:56:59.896Z,1.00
2019-01-04T00:59:57.876Z,1.20
2019-01-04T01:02:48.301Z,0.97
2019-01-04T01:08:11.907Z,1.10
2019-01-04T01:10:59.776Z,1.20
2019-01-04T01:13:53.399Z,0.90
2019-01-04T01:16:48.348Z,0.70
2019-01-04T01:19:44.294Z,0.93
2019-01-04T01:22:31.412Z,1.00
2019-01-04T01:25:32.792Z,1.00
2019-01-04T01:28:24.265Z,0.83
2019-01-04T01:31:15.384Z,1.00
2019-01-04T01:33:57.746Z,1.07
2019-01-04T01:36:32.600Z,1.00
2019-01-04T01:39:33.302Z,0.90
2019-01-04T01:42:20.813Z,0.93
2019-01-04T01:45:11.309Z,0.80
2019-01-04T01:47:43.896Z,1.00
2019-01-04T01:50:38.681Z,0.80
2019-01-04T01:53:08.400Z,0.77
2019-01-04T01:55:39.110Z,0.80
2019-01-04T01:58:09.941Z,0.80
2019-01-04T02:00:39.893Z,0.80
2019-01-04T02:03:10.330Z,0.90
2019-01-04T02:05:39.980Z,0.70
2019-01-04T02:08:11.228Z,0.80
2019-01-04T02:10:42.237Z,0.63
2019-01-04T02:13:12.269Z,0.80
2019-01-04T02:15:42.371Z,0.70
2019-01-04T02:18:12.025Z,0.80
2019-01-04T02:20:41.841Z,0.80
2019-01-04T02:23:12.681Z,0.70
2019-01-04T02:25:42.658Z,0.83
2019-01-04T02:28:12.469Z,0.80
2019-01-04T02:30:42.595Z,0.90
2019-01-04T02:33:15.064Z,0.80
2019-01-04T02:35:45.273Z,0.70
2019-01-04T02:38:14.887Z,0.77
2019-01-04T02:40:44.635Z,0.77
2019-01-04T02:43:14.024Z,0.70
2019-01-04T02:45:44.097Z,0.80
2019-01-04T02:48:14.074Z,0.90
2019-01-04T02:50:44.542Z,0.70
2019-01-04T02:53:15.086Z,0.77
2019-01-04T02:55:46.425Z,0.60
2019-01-04T02:58:16.853Z,0.70
2019-01-04T03:00:47.289Z,0.80
2019-01-04T03:03:16.968Z,0.80
2019-01-04T03:05:46.904Z,0.70
2019-01-04T03:08:16.735Z,0.60
2019-01-04T03:10:46.508Z,0.70
2019-01-04T03:13:19.281Z,0.70
2019-01-04T03:15:48.915Z,0.70
2019-01-04T03:18:19.015Z,0.90
2019-01-04T03:20:49.408Z,0.70
2019-01-04T03:23:19.373Z,0.70
2019-01-04T03:25:49.782Z,0.70
2019-01-04T03:28:19.726Z,0.80
2019-01-04T03:30:50.246Z,0.60
2019-01-04T03:33:20.705Z,0.80
2019-01-04T03:35:51.166Z,0.63
2019-01-04T03:38:21.017Z,0.70
2019-01-04T03:40:51.349Z,0.60
2019-01-04T03:43:21.141Z,0.70
2019-01-04T03:45:51.974Z,0.70
2019-01-04T03:48:23.514Z,0.70
2019-01-04T03:50:53.263Z,0.73
2019-01-04T03:53:24.184Z,0.77
2019-01-04T03:55:54.719Z,0.80
2019-01-04T03:58:24.828Z,0.70
2019-01-04T04:00:54.666Z,0.70
2019-01-04T04:03:24.581Z,0.60
2019-01-04T04:05:55.450Z,0.83
2019-01-04T04:08:25.197Z,0.90
2019-01-04T04:10:56.273Z,0.90
2019-01-04T04:13:26.221Z,0.57
2019-01-04T04:15:56.665Z,0.80
2019-01-04T04:18:26.697Z,0.60
2019-01-04T04:20:57.017Z,0.93
2019-01-04T04:23:27.449Z,0.80
2019-01-04T04:25:57.256Z,0.77
2019-01-04T04:28:27.190Z,0.70
2019-01-04T04:30:56.958Z,0.70
2019-01-04T04:33:26.782Z,0.90
2019-01-04T04:35:56.922Z,0.60
2019-01-04T04:38:28.961Z,0.87
2019-01-04T04:40:58.785Z,0.90
2019-01-04T04:43:28.430Z,0.90
2019-01-04T04:45:58.277Z,0.80
2019-01-04T04:48:28.038Z,0.83
2019-01-04T04:50:57.890Z,0.87
2019-01-04T04:53:27.853Z,0.83
2019-01-04T04:55:58.326Z,0.80
2019-01-04T04:58:28.801Z,0.77
2019-01-04T05:00:59.093Z,0.70
2019-01-04T05:03:28.802Z,0.73
2019-01-04T05:05:58.913Z,1.00
2019-01-04T05:08:30.492Z,0.65
2019-01-04T05:11:00.392Z,0.70
2019-01-04T05:13:30.533Z,0.70
2019-01-04T05:16:00.663Z,0.60
2019-01-04T05:18:31.229Z,0.90
2019-01-04T05:21:00.996Z,1.00
2019-01-04T05:23:31.638Z,0.90
2019-01-04T05:26:01.256Z,0.90
2019-01-04T05:28:31.318Z,1.00
2019-01-04T05:31:01.821Z,0.87
2019-01-04T05:33:31.753Z,0.77
2019-01-04T05:36:03.033Z,0.70
2019-01-04T05:38:32.988Z,0.78
2019-01-04T05:41:03.732Z,0.70
2019-01-04T05:43:33.030Z,0.63
2019-01-04T05:46:03.013Z,0.67
2019-01-04T05:48:33.525Z,0.70
2019-01-04T05:51:03.267Z,0.77
2019-01-04T05:53:34.298Z,0.73
2019-01-04T05:56:04.276Z,0.60
2019-01-04T05:58:34.038Z,0.70
2019-01-04T06:01:03.792Z,1.00
2019-01-04T06:03:33.613Z,0.60
2019-01-04T06:06:04.117Z,0.63
2019-01-04T06:08:33.825Z,1.00
2019-01-04T06:11:04.254Z,0.70
2019-01-04T06:13:34.619Z,0.60
2019-01-04T06:16:04.733Z,0.50
2019-01-04T06:18:35.141Z,0.60
2019-01-04T06:21:05.189Z,0.80
2019-01-04T06:23:34.972Z,0.60
2019-01-04T06:26:04.825Z,0.70
2019-01-04T06:28:34.933Z,0.60
2019-01-04T06:31:04.757Z,0.50
2019-01-04T06:33:35.233Z,0.60
2019-01-04T06:36:04.969Z,0.60
2019-01-04T06:38:35.243Z,0.60
2019-01-04T06:41:05.853Z,0.60
2019-01-04T06:43:36.321Z,0.60
2019-01-04T06:46:06.205Z,0.50
2019-01-04T06:48:36.437Z,0.60
2019-01-04T06:51:06.353Z,0.60
2019-01-04T06:53:37.285Z,1.00
2019-01-04T06:56:08.757Z,0.70
2019-01-04T06:58:38.713Z,0.67
2019-01-04T07:01:08.508Z,0.60
2019-01-04T07:03:39.033Z,0.60
2019-01-04T07:06:08.869Z,0.47
2019-01-04T07:08:39.213Z,0.43
2019-01-04T07:11:09.113Z,0.63
2019-01-04T07:13:39.610Z,0.80
2019-01-04T07:16:09.288Z,0.60
2019-01-04T07:18:41.245Z,0.62
2019-01-04T07:21:12.242Z,0.60
2019-01-04T07:23:42.151Z,0.63
2019-01-04T07:26:11.901Z,0.60
2019-01-04T07:28:41.654Z,0.77
2019-01-04T07:31:13.209Z,0.40
2019-01-04T07:33:43.574Z,0.60
2019-01-04T07:36:13.229Z,0.57
2019-01-04T07:38:42.881Z,0.60
2019-01-04T07:41:12.586Z,0.60
2019-01-04T07:43:42.381Z,0.70
2019-01-04T07:46:13.721Z,0.50
2019-01-04T07:48:43.585Z,0.60
2019-01-04T07:51:13.501Z,0.47
2019-01-04T07:53:44.393Z,0.60
2019-01-04T07:56:14.477Z,0.67
2019-01-04T07:58:44.388Z,0.50
2019-01-04T08:01:15.454Z,0.60
2019-01-04T08:03:46.665Z,0.50
2019-01-04T08:06:18.193Z,0.60
2019-01-04T08:08:48.660Z,0.57
2019-01-04T08:11:18.671Z,0.50
2019-01-04T08:13:48.928Z,0.57
2019-01-04T08:16:19.005Z,0.70
2019-01-04T08:18:49.270Z,0.63
2019-01-04T08:21:19.058Z,0.77
2019-01-04T08:23:48.705Z,0.97
2019-01-04T08:26:18.707Z,0.63
2019-01-04T08:28:48.285Z,0.63
2019-01-04T08:31:18.317Z,0.77
2019-01-04T08:33:48.487Z,0.70
2019-01-04T08:36:18.317Z,0.80
2019-01-04T08:38:48.557Z,0.82
2019-01-04T08:41:18.371Z,0.93
2019-01-04T08:43:48.146Z,0.70
2019-01-04T08:46:19.162Z,0.70
2019-01-04T08:48:49.601Z,0.70
2019-01-04T08:51:19.532Z,1.10
2019-01-04T08:53:59.617Z,0.70
2019-01-04T08:56:30.697Z,0.60
2019-01-04T08:59:00.925Z,0.90
2019-01-04T09:01:30.828Z,0.80
2019-01-04T09:04:01.525Z,0.67
2019-01-04T09:06:31.225Z,0.87
2019-01-04T09:09:01.388Z,0.70
2019-01-04T09:11:31.104Z,1.47
2019-01-04T09:14:01.177Z,0.70
2019-01-04T09:16:31.360Z,0.97
2019-01-04T09:19:01.250Z,0.73
2019-01-04T09:21:30.953Z,1.17
2019-01-04T09:24:01.053Z,0.90
2019-01-04T09:26:30.905Z,0.70
2019-01-04T09:29:01.965Z,0.73
2019-01-04T09:31:31.602Z,1.00
2019-01-04T09:34:02.429Z,1.10
2019-01-04T09:36:32.138Z,1.07
2019-01-04T09:39:03.382Z,0.83
2019-01-04T09:41:40.414Z,0.90
2019-01-04T09:44:10.675Z,0.80
2019-01-04T09:46:41.346Z,0.83
2019-01-04T09:49:11.801Z,1.07
2019-01-04T09:51:41.952Z,1.00
2019-01-04T09:54:12.242Z,0.90
2019-01-04T09:56:44.043Z,0.80
2019-01-04T09:59:14.596Z,0.70
2019-01-04T10:01:44.637Z,0.70
2019-01-04T10:04:14.774Z,0.90
2019-01-04T10:06:44.973Z,0.90
2019-01-04T10:09:14.752Z,0.83
2019-01-04T10:11:45.249Z,0.77
2019-01-04T10:14:15.516Z,1.80
2019-01-04T10:16:45.329Z,0.80
2019-01-04T10:19:15.004Z,0.67
2019-01-04T10:21:44.821Z,0.70
2019-01-04T10:24:14.374Z,1.07
2019-01-04T10:26:44.932Z,0.70
2019-01-04T10:29:15.573Z,0.60
2019-01-04T10:31:45.964Z,0.65
2019-01-04T10:34:15.913Z,1.03
2019-01-04T10:36:47.292Z,1.00
2019-01-04T10:39:17.788Z,0.80
2019-01-04T10:41:47.541Z,0.80
2019-01-04T10:44:17.261Z,0.60
2019-01-04T10:46:47.655Z,0.60
2019-01-04T10:49:17.450Z,0.50
2019-01-04T10:51:48.057Z,0.60
2019-01-04T10:54:18.288Z,0.50
2019-01-04T10:56:48.017Z,0.80
2019-01-04T10:59:17.940Z,0.70
2019-01-04T11:01:48.845Z,0.60
2019-01-04T11:04:18.648Z,0.70
2019-01-04T11:06:48.465Z,0.60
2019-01-04T11:09:18.478Z,0.70
2019-01-04T11:11:49.495Z,0.80
2019-01-04T11:14:22.289Z,0.70
2019-01-04T11:16:51.969Z,0.50
2019-01-04T11:19:21.905Z,0.70
2019-01-04T11:21:51.221Z,0.60
2019-01-04T11:24:40.347Z,0.57
2019-01-04T11:27:11.902Z,0.63
2019-01-04T11:30:09.641Z,0.70
2019-01-04T11:32:52.492Z,0.70
2019-01-04T11:35:30.045Z,0.90
2019-01-04T11:38:06.412Z,0.60
2019-01-04T11:40:42.321Z,0.70
2019-01-04T11:43:27.771Z,0.60
2019-01-04T11:46:02.362Z,0.77
2019-01-04T11:48:51.421Z,0.70
2019-01-04T11:51:39.933Z,0.80
2019-01-04T11:54:11.509Z,0.70
2019-01-04T11:56:41.196Z,0.90
2019-01-04T11:59:11.304Z,0.80
2019-01-04T12:01:41.305Z,0.70
2019-01-04T12:04:11.292Z,0.63
2019-01-04T12:06:41.047Z,0.90
2019-01-04T12:09:12.219Z,0.70
2019-01-04T12:11:42.277Z,0.78
2019-01-04T12:14:12.084Z,0.87
2019-01-04T12:16:41.824Z,0.90
2019-01-04T12:19:11.525Z,1.35
2019-01-04T12:21:42.980Z,0.90
2019-01-04T12:24:12.767Z,1.07
2019-01-04T12:26:42.713Z,1.00
2019-01-04T12:29:12.870Z,0.85
2019-01-04T12:31:42.762Z,1.13
2019-01-04T12:34:16.599Z,0.90
2019-01-04T12:36:45.709Z,1.00
2019-01-04T12:39:17.941Z,0.90
2019-01-04T12:41:47.809Z,1.00
2019-01-04T12:44:17.492Z,0.93
2019-01-04T12:46:47.702Z,1.10
2019-01-04T12:49:20.161Z,1.00
2019-01-04T12:51:50.054Z,0.80
2019-01-04T12:54:20.357Z,0.93
2019-01-04T12:56:50.989Z,0.90
2019-01-04T12:59:20.837Z,1.07
2019-01-04T13:01:50.677Z,1.00
2019-01-04T13:04:20.604Z,0.90
2019-01-04T13:06:57.765Z,0.93
2019-01-04T13:09:28.006Z,1.10
2019-01-04T13:11:59.211Z,1.20
2019-01-04T13:14:28.972Z,1.03
2019-01-04T13:17:00.659Z,0.97
2019-01-04T13:19:30.617Z,1.10
2019-01-04T13:22:01.637Z,1.10
2019-01-04T13:24:31.350Z,0.90
2019-01-04T13:27:01.350Z,1.00
2019-01-04T13:29:32.440Z,0.73
2019-01-04T13:32:02.297Z,0.90
2019-01-04T13:34:32.705Z,1.03
2019-01-04T13:37:04.174Z,1.10
2019-01-04T13:39:33.680Z,1.17
2019-01-04T13:42:05.676Z,1.00
2019-01-04T13:44:36.180Z,1.03
2019-01-04T13:47:06.255Z,0.90
2019-01-04T13:49:37.241Z,1.03
2019-01-04T13:52:07.162Z,1.20
2019-01-04T13:54:37.425Z,0.80
2019-01-04T13:57:07.314Z,0.90
2019-01-04T13:59:37.261Z,1.10
2019-01-04T14:02:08.377Z,1.00
2019-01-04T14:04:41.133Z,1.03
2019-01-04T14:07:11.606Z,1.00
2019-01-04T14:09:41.382Z,0.90
2019-01-04T14:12:11.165Z,1.47
2019-01-04T14:14:40.945Z,1.27
2019-01-04T14:17:10.793Z,0.97
2019-01-04T14:19:41.258Z,1.20
2019-01-04T14:22:11.267Z,1.10
2019-01-04T14:24:40.680Z,1.20
2019-01-04T14:27:10.189Z,1.20
2019-01-04T14:29:40.025Z,1.13
2019-01-04T14:32:11.897Z,1.20
2019-01-04T14:34:44.457Z,0.90
2019-01-04T14:37:14.720Z,1.03
2019-01-04T14:39:44.177Z,0.90
2019-01-04T14:42:13.637Z,1.10
2019-01-04T14:44:43.617Z,1.00
2019-01-04T14:47:13.193Z,1.17
2019-01-04T14:49:43.516Z,0.90
2019-01-04T14:52:13.933Z,1.20
2019-01-04T14:54:44.072Z,1.03
2019-01-04T14:57:14.429Z,1.53
2019-01-04T14:59:43.952Z,1.22
2019-01-04T15:02:14.343Z,1.10
2019-01-04T15:04:44.168Z,1.00
2019-01-04T15:07:13.433Z,1.00
2019-01-04T15:09:43.307Z,1.00
2019-01-04T15:12:13.610Z,0.90
2019-01-04T15:14:42.920Z,1.03
2019-01-04T15:17:13.472Z,0.80
2019-01-04T15:19:43.488Z,0.88
2019-01-04T15:22:13.097Z,1.07
2019-01-04T15:24:42.978Z,1.00
2019-01-04T15:27:13.833Z,0.97
2019-01-04T15:29:45.129Z,0.90
2019-01-04T15:32:15.417Z,0.87
2019-01-04T15:34:44.889Z,0.80
2019-01-04T15:37:17.805Z,0.93
2019-01-04T15:39:47.969Z,1.20
2019-01-04T15:42:16.905Z,0.80
2019-01-04T15:44:46.793Z,0.90
2019-01-04T15:47:16.533Z,0.70
2019-01-04T15:49:46.682Z,1.10
2019-01-04T15:52:16.454Z,0.80
2019-01-04T15:54:46.519Z,1.00
2019-01-04T15:57:16.801Z,1.07
2019-01-04T15:59:46.757Z,0.90
2019-01-04T16:02:17.820Z,1.10
2019-01-04T16:04:47.333Z,0.82
2019-01-04T16:07:18.106Z,0.77
2019-01-04T16:09:50.141Z,0.70
2019-01-04T16:12:20.001Z,1.00
2019-01-04T16:14:49.957Z,1.07
2019-01-04T16:17:20.344Z,1.20
2019-01-04T16:19:51.004Z,1.03
2019-01-04T16:22:21.456Z,1.40
2019-01-04T16:24:51.159Z,1.00
2019-01-04T16:27:20.753Z,1.10
2019-01-04T16:29:50.138Z,1.00
2019-01-04T16:32:19.767Z,0.93
2019-01-04T16:34:49.505Z,1.10
2019-01-04T16:37:20.857Z,1.10
2019-01-04T16:39:50.401Z,0.88
2019-01-04T16:42:20.729Z,1.00
2019-01-04T16:44:51.689Z,1.03
2019-01-04T16:47:21.570Z,1.00
2019-01-04T16:49:53.548Z,1.03
2019-01-04T16:52:23.230Z,1.00
2019-01-04T16:54:53.620Z,0.90
2019-01-04T16:57:23.745Z,1.20
2019-01-04T16:59:56.073Z,0.90
2019-01-04T17:02:26.434Z,1.10
2019-01-04T17:04:56.011Z,1.00
2019-01-04T17:07:26.265Z,1.00
2019-01-04T17:09:55.905Z,1.10
2019-01-04T17:12:26.904Z,1.17
2019-01-04T17:14:57.235Z,1.10
2019-01-04T17:17:27.610Z,1.10
2019-01-04T17:19:57.227Z,0.87
2019-01-04T17:22:26.937Z,1.20
2019-01-04T17:24:57.253Z,1.27
2019-01-04T17:27:27.170Z,1.17
2019-01-04T17:29:56.921Z,1.10
2019-01-04T17:32:26.936Z,1.17
2019-01-04T17:34:57.817Z,1.10
2019-01-04T17:37:27.412Z,1.12
2019-01-04T17:39:57.634Z,1.20
2019-01-04T17:42:28.196Z,1.30
2019-01-04T17:44:58.577Z,1.23
2019-01-04T17:47:28.869Z,1.40
2019-01-04T17:49:59.257Z,1.45
2019-01-04T17:52:30.369Z,1.40
2019-01-04T17:55:01.146Z,1.40
2019-01-04T17:57:32.024Z,1.40
2019-01-04T18:00:02.526Z,1.47
2019-01-04T18:02:33.553Z,1.47
2019-01-04T18:05:03.429Z,1.40
2019-01-04T18:07:33.986Z,1.60
2019-01-04T18:10:03.637Z,1.50
2019-01-04T18:12:34.169Z,1.70
2019-01-04T18:15:03.559Z,1.70
2019-01-04T18:17:33.849Z,1.93
2019-01-04T18:20:04.889Z,1.80
2019-01-04T18:22:35.301Z,2.00
2019-01-04T18:25:05.221Z,1.83
2019-01-04T18:27:35.468Z,1.77
2019-01-04T18:30:06.376Z,1.90
2019-01-04T18:32:36.921Z,1.80
2019-01-04T18:35:06.957Z,1.90
2019-01-04T18:37:37.518Z,1.90
2019-01-04T18:40:08.874Z,2.00
2019-01-04T18:42:39.865Z,2.20
2019-01-04T18:45:10.351Z,1.90
2019-01-04T18:47:39.985Z,2.10
2019-01-04T18:50:11.703Z,1.93
2019-01-04T18:52:41.519Z,1.70
2019-01-04T18:55:14.341Z,1.90
2019-01-04T18:57:45.865Z,1.70
2019-01-04T19:00:16.009Z,1.60
2019-01-04T19:02:46.457Z,1.30
2019-01-04T19:05:16.916Z,1.50
2019-01-04T19:07:46.450Z,1.77
2019-01-04T19:10:16.244Z,1.70
2019-01-04T19:12:45.956Z,1.60
2019-01-04T19:15:16.349Z,1.70
2019-01-04T19:17:47.257Z,1.60
2019-01-04T19:20:17.864Z,1.83
2019-01-04T19:22:47.877Z,1.63
2019-01-04T19:25:18.299Z,1.80
2019-01-04T19:27:48.733Z,1.60
2019-01-04T19:30:18.656Z,1.40
2019-01-04T19:33:01.060Z,1.33
2019-01-04T19:35:31.134Z,1.62
2019-01-04T19:38:01.197Z,1.60
2019-01-04T19:40:30.479Z,1.60
2019-01-04T19:43:00.225Z,1.50
2019-01-04T19:45:30.446Z,1.37
2019-01-04T19:48:00.126Z,1.30
2019-01-04T19:50:29.938Z,1.40
2019-01-04T19:53:00.835Z,1.17
2019-01-04T19:55:31.159Z,1.37
2019-01-04T19:58:01.525Z,1.50
2019-01-04T20:00:32.718Z,1.40
2019-01-04T20:03:03.262Z,1.30
2019-01-04T20:06:28.633Z,1.20
2019-01-04T20:09:54.359Z,1.00
2019-01-04T20:13:04.585Z,1.10
2019-01-04T20:16:17.353Z,0.93
2019-01-04T20:19:04.481Z,1.10
2019-01-04T20:21:56.889Z,1.00
2019-01-04T20:24:44.755Z,1.00
2019-01-04T20:27:35.955Z,1.20
2019-01-04T20:30:27.884Z,1.23
2019-01-04T20:33:26.649Z,0.90
2019-01-04T20:36:21.089Z,0.93
2019-01-04T20:39:08.277Z,0.83
2019-01-04T20:41:57.278Z,0.90
2019-01-04T20:44:44.689Z,1.00
2019-01-04T20:47:32.129Z,1.10
2019-01-04T20:50:22.033Z,1.07
2019-01-04T20:53:10.009Z,1.10
2019-01-04T20:56:10.287Z,1.60
2019-01-04T20:59:01.862Z,1.10
2019-01-04T21:01:48.987Z,1.20
2019-01-04T21:04:40.351Z,1.30
2019-01-04T21:07:23.848Z,1.40
2019-01-04T21:10:15.750Z,1.30
2019-01-04T21:13:07.494Z,1.50
2019-01-04T21:16:14.545Z,1.53
2019-01-04T21:19:06.017Z,1.43
2019-01-04T21:22:03.137Z,1.37
2019-01-04T21:25:03.590Z,1.37
2019-01-04T21:27:50.495Z,1.30
2019-01-04T21:30:41.814Z,1.30
2019-01-04T21:33:29.326Z,1.40
2019-01-04T21:36:23.777Z,1.23
2019-01-04T21:39:21.873Z,1.50
2019-01-04T21:42:25.052Z,1.40
2019-01-04T21:45:28.833Z,1.30
2019-01-04T21:48:17.430Z,1.12
2019-01-04T21:51:15.441Z,1.27
2019-01-04T21:54:06.834Z,1.10
2019-01-04T21:56:54.640Z,1.10
2019-01-04T21:59:42.368Z,1.00
2019-01-04T22:02:32.425Z,1.30
2019-01-04T22:05:26.797Z,1.30
2019-01-04T22:08:23.944Z,1.40
2019-01-04T22:11:13.936Z,1.37
2019-01-04T22:14:02.411Z,1.30
2019-01-04T22:16:50.238Z,1.53
2019-01-04T22:19:48.526Z,1.50
2019-01-04T22:22:45.677Z,1.20
2019-01-04T22:25:32.605Z,1.40
2019-01-04T22:28:19.322Z,1.20
2019-01-04T22:31:10.574Z,1.07
2019-01-04T22:34:13.479Z,1.20
2019-01-04T22:36:58.690Z,1.30
2019-01-04T22:39:46.464Z,1.00
2019-01-04T22:42:41.218Z,1.37
2019-01-04T22:45:32.772Z,1.30
2019-01-04T22:48:18.989Z,1.30
2019-01-04T22:51:08.067Z,1.20
2019-01-04T22:54:15.634Z,1.10
2019-01-04T22:57:02.140Z,1.50
2019-01-04T22:59:57.737Z,1.30
2019-01-04T23:02:44.837Z,1.35
2019-01-04T23:05:36.225Z,1.50
2019-01-04T23:08:24.345Z,1.50
2019-01-04T23:11:15.269Z,1.50
2019-01-04T23:14:04.179Z,1.60
2019-01-04T23:16:51.706Z,1.42
2019-01-04T23:19:38.085Z,1.80
2019-01-04T23:22:32.801Z,1.47
2019-01-04T23:25:21.115Z,1.63
2019-01-04T23:28:08.537Z,1.60
2019-01-04T23:31:15.841Z,1.60
2019-01-04T23:34:04.107Z,1.70
2019-01-04T23:36:51.361Z,1.50
2019-01-04T23:39:50.309Z,1.57
2019-01-04T23:42:53.994Z,1.67
2019-01-04T23:45:45.512Z,1.50
2019-01-04T23:48:42.511Z,1.50
2019-01-04T23:51:37.453Z,1.40
2019-01-04T23:54:17.945Z,1.33
2019-01-04T23:57:03.372Z,1.33
2019-01-04T23:59:52.020Z,1.20
